Time;durP1;ratioP1;P1;durP2;ratioP2;P2;SDS_P1;SDS_P2;PMS_P1;PMS_P2;Temp;Humidity;BMP_temperature;BMP_pressure;BME280_temperature;BME280_humidity;BME280_pressure;Samples;Min_cycle;Max_cycle;Signal;HPM_P1;HPM_P2
2023/12/12 00:01:35;;;;;;;;;12.00;10.67;;;;;10.85;100.00;100789.22;5021706;28;45500;-74
2023/12/12 00:04:00;;;;;;;;;19.00;16.00;;;;;10.79;100.00;100768.38;4988999;28;48138;-74
2023/12/12 00:06:26;;;;;;;;;19.33;15.67;;;;;10.84;100.00;100774.28;4999068;28;45340;-73
2023/12/12 00:08:51;;;;;;;;;20.00;16.67;;;;;10.94;100.00;100792.28;4993218;28;45483;-73
2023/12/12 00:11:17;;;;;;;;;20.00;16.00;;;;;10.99;100.00;100800.00;5012813;28;53744;-76
2023/12/12 00:13:42;;;;;;;;;18.00;15.67;;;;;10.96;100.00;100782.47;5008609;28;45423;-72
2023/12/12 00:16:08;;;;;;;;;14.33;12.67;;;;;11.10;100.00;100788.88;5005784;28;59069;-74
2023/12/12 00:18:37;;;;;;;;;18.00;13.67;;;;;11.11;100.00;100788.81;5018280;28;45495;-74
2023/12/12 00:21:03;;;;;;;;;23.00;18.33;;;;;11.09;100.00;100776.59;5002410;28;45476;-74
2023/12/12 00:23:29;;;;;;;;;23.00;20.00;;;;;11.22;100.00;100769.75;5012595;28;45386;-75
2023/12/12 00:25:54;;;;;;;;;21.33;18.00;;;;;11.37;100.00;100766.31;5021411;28;45281;-75
2023/12/12 00:28:19;;;;;;;;;19.00;11.67;;;;;11.30;100.00;100749.88;5003715;28;45465;-75
2023/12/12 00:30:45;;;;;;;;;19.33;16.00;;;;;11.32;100.00;100755.13;5020226;28;59879;-75
2023/12/12 00:33:10;;;;;;;;;17.00;17.00;;;;;11.49;100.00;100771.84;5016945;28;47171;-75
2023/12/12 00:35:35;;;;;;;;;19.67;17.33;;;;;11.44;100.00;100744.75;5014449;28;45443;-74
2023/12/12 00:38:01;;;;;;;;;23.33;22.00;;;;;11.52;100.00;100755.78;5003359;28;45778;-75
2023/12/12 00:40:26;;;;;;;;;19.00;18.33;;;;;11.50;100.00;100741.78;5019254;28;45460;-75
2023/12/12 00:42:52;;;;;;;;;18.00;16.67;;;;;11.51;100.00;100740.00;5012696;28;47641;-75
2023/12/12 00:45:17;;;;;;;;;20.67;16.33;;;;;11.62;100.00;100745.56;5015080;28;46268;-75
2023/12/12 00:47:44;;;;;;;;;17.00;14.67;;;;;11.62;100.00;100750.88;5020429;28;45597;-75
2023/12/12 00:50:09;;;;;;;;;21.67;18.33;;;;;11.65;100.00;100745.41;5019826;28;45215;-75
2023/12/12 00:52:35;;;;;;;;;19.67;17.00;;;;;11.65;100.00;100739.28;5002448;28;46535;-75
2023/12/12 00:55:00;;;;;;;;;21.67;17.33;;;;;11.66;100.00;100736.53;4990386;28;45383;-75
2023/12/12 00:57:26;;;;;;;;;12.00;11.00;;;;;11.71;100.00;100731.91;5004154;28;45525;-75
2023/12/12 00:59:52;;;;;;;;;16.67;12.67;;;;;11.70;100.00;100724.88;5020967;28;45416;-75
2023/12/12 01:02:20;;;;;;;;;23.67;20.00;;;;;11.66;100.00;100711.81;5018251;28;45783;-75
2023/12/12 01:04:45;;;;;;;;;21.67;18.00;;;;;11.60;100.00;100704.22;4993532;28;45259;-75
2023/12/12 01:07:10;;;;;;;;;21.00;18.33;;;;;11.71;100.00;100718.66;4993365;28;45321;-74
2023/12/12 01:09:35;;;;;;;;;23.67;16.67;;;;;11.59;100.00;100697.19;5009143;28;45482;-75
2023/12/12 01:12:01;;;;;;;;;19.33;17.33;;;;;11.66;100.00;100709.19;5017678;28;56980;-75
2023/12/12 01:14:26;;;;;;;;;18.00;13.00;;;;;11.66;100.00;100715.34;4998560;28;56480;-75
2023/12/12 01:16:51;;;;;;;;;24.00;17.00;;;;;11.70;100.00;100706.34;4987771;28;65083;-75
2023/12/12 01:19:17;;;;;;;;;19.00;14.67;;;;;11.56;100.00;100692.06;5020363;28;45258;-75
2023/12/12 01:21:42;;;;;;;;;19.00;15.00;;;;;11.65;100.00;100708.31;5018705;28;53541;-75
2023/12/12 01:24:07;;;;;;;;;20.00;18.67;;;;;11.66;100.00;100702.09;5020623;28;45282;-75
2023/12/12 01:26:33;;;;;;;;;16.33;14.00;;;;;11.67;100.00;100698.50;5009058;28;45465;-75
2023/12/12 01:28:58;;;;;;;;;22.33;15.33;;;;;11.61;100.00;100692.69;5001115;28;45893;-75
2023/12/12 01:31:23;;;;;;;;;20.00;17.00;;;;;11.48;100.00;100666.00;5007374;28;54949;-75
2023/12/12 01:33:49;;;;;;;;;20.00;17.00;;;;;11.67;100.00;100681.75;4994448;28;45386;-75
2023/12/12 01:36:14;;;;;;;;;20.00;17.00;;;;;11.50;100.00;100662.31;5009699;28;45291;-75
2023/12/12 01:38:40;;;;;;;;;17.33;16.00;;;;;11.61;100.00;100684.75;5017917;28;45597;-74
2023/12/12 01:41:05;;;;;;;;;23.67;17.00;;;;;11.67;100.00;100700.31;5011182;28;58033;-75
2023/12/12 01:43:32;;;;;;;;;20.00;16.33;;;;;11.71;100.00;100689.50;4996802;28;45496;-75
2023/12/12 01:46:00;;;;;;;;;18.00;15.33;;;;;11.72;100.00;100683.25;5002726;28;45448;-74
2023/12/12 01:48:27;;;;;;;;;15.00;13.33;;;;;11.77;100.00;100691.81;5023927;28;45554;-75
2023/12/12 01:50:53;;;;;;;;;16.67;14.67;;;;;11.78;100.00;100685.56;5024676;28;45452;-75
2023/12/12 01:53:21;;;;;;;;;17.00;14.00;;;;;11.68;100.00;100657.00;5011092;28;45375;-75
2023/12/12 01:55:49;;;;;;;;;18.67;15.67;;;;;11.72;100.00;100661.19;5025387;28;45571;-74
2023/12/12 01:58:15;;;;;;;;;19.33;17.33;;;;;11.84;100.00;100684.41;5028889;28;45318;-74
2023/12/12 02:00:40;;;;;;;;;16.67;14.00;;;;;11.83;100.00;100685.31;5024998;28;45288;-74
2023/12/12 02:03:06;;;;;;;;;17.33;15.67;;;;;11.77;100.00;100675.06;5026897;28;45490;-74
2023/12/12 02:05:32;;;;;;;;;22.33;14.33;;;;;11.87;100.00;100681.59;5020894;28;45416;-75
2023/12/12 02:07:59;;;;;;;;;14.00;14.00;;;;;11.81;100.00;100658.91;5011744;28;45638;-75
2023/12/12 02:10:25;;;;;;;;;13.33;12.00;;;;;11.77;100.00;100651.22;4996931;28;45862;-75
2023/12/12 02:12:50;;;;;;;;;18.33;13.33;;;;;11.77;100.00;100660.03;4987936;28;45377;-75
2023/12/12 02:15:16;;;;;;;;;16.67;13.67;;;;;11.90;100.00;100658.41;4997189;28;45341;-75
2023/12/12 02:17:41;;;;;;;;;16.00;13.33;;;;;11.88;100.00;100657.63;5004837;28;45599;-75
2023/12/12 02:20:07;;;;;;;;;11.33;11.33;;;;;11.89;100.00;100653.19;5015739;28;47723;-75
2023/12/12 02:22:32;;;;;;;;;13.67;12.67;;;;;11.95;100.00;100655.50;4999765;28;45345;-75
2023/12/12 02:24:58;;;;;;;;;12.33;12.33;;;;;11.85;100.00;100636.59;4987681;28;54162;-75
2023/12/12 02:27:24;;;;;;;;;14.33;12.33;;;;;11.98;100.00;100661.50;5001575;28;45545;-75
2023/12/12 02:29:49;;;;;;;;;13.00;12.00;;;;;11.89;100.00;100629.34;5000139;28;46245;-75
2023/12/12 02:32:16;;;;;;;;;13.33;13.33;;;;;11.91;100.00;100623.00;4995024;28;45382;-75
2023/12/12 02:34:42;;;;;;;;;14.33;13.00;;;;;12.00;100.00;100630.47;4987904;28;45357;-75
2023/12/12 02:37:07;;;;;;;;;14.33;11.67;;;;;12.00;100.00;100635.78;4997814;28;45480;-76
2023/12/12 02:39:35;;;;;;;;;14.33;14.00;;;;;12.02;100.00;100633.88;4992176;28;55733;-75
2023/12/12 02:42:01;;;;;;;;;17.67;15.33;;;;;12.06;100.00;100625.75;4985411;28;45471;-73
2023/12/12 02:44:26;;;;;;;;;14.00;14.00;;;;;11.99;100.00;100618.16;4996068;28;45366;-74
2023/12/12 02:46:51;;;;;;;;;13.33;11.00;;;;;11.97;100.00;100596.19;4999183;28;45505;-74
2023/12/12 02:49:17;;;;;;;;;11.00;11.00;;;;;12.02;100.00;100599.41;4997164;28;45353;-74
2023/12/12 02:51:42;;;;;;;;;13.00;11.33;;;;;11.94;100.00;100569.81;4997521;28;45557;-73
2023/12/12 02:54:08;;;;;;;;;13.00;9.00;;;;;11.94;100.00;100567.19;4985636;28;45489;-74
2023/12/12 02:56:33;;;;;;;;;12.67;10.67;;;;;11.93;100.00;100552.25;4983096;28;45383;-74
2023/12/12 02:58:59;;;;;;;;;12.67;12.33;;;;;11.96;100.00;100560.00;4994852;28;46069;-74
2023/12/12 03:01:24;;;;;;;;;10.67;9.33;;;;;12.05;100.00;100576.31;4996105;28;45622;-74
2023/12/12 03:03:49;;;;;;;;;10.33;9.67;;;;;11.91;100.00;100542.69;4999239;28;45857;-74
2023/12/12 03:06:15;;;;;;;;;9.67;9.00;;;;;11.79;100.00;100520.34;4991453;28;45496;-74
2023/12/12 03:08:40;;;;;;;;;11.33;9.00;;;;;11.97;100.00;100548.47;4994571;28;59757;-74
2023/12/12 03:11:05;;;;;;;;;9.00;9.00;;;;;11.80;100.00;100531.81;5018237;28;45710;-74
2023/12/12 03:13:32;;;;;;;;;10.00;9.00;;;;;11.94;100.00;100551.28;5015823;28;45314;-74
2023/12/12 03:15:57;;;;;;;;;4.67;4.33;;;;;12.01;100.00;100562.38;4989195;28;45720;-74
2023/12/12 03:18:23;;;;;;;;;6.00;5.00;;;;;12.02;100.00;100564.09;5015856;28;45469;-74
2023/12/12 03:20:48;;;;;;;;;11.33;9.00;;;;;11.88;100.00;100546.34;5016417;28;55700;-74
2023/12/12 03:23:13;;;;;;;;;9.00;9.00;;;;;11.97;100.00;100559.09;5019009;28;45289;-74
2023/12/12 03:25:38;;;;;;;;;11.67;8.00;;;;;12.01;100.00;100563.25;4994941;28;45233;-74
2023/12/12 03:28:04;;;;;;;;;10.33;10.00;;;;;11.91;100.00;100529.44;5007287;28;53885;-74
2023/12/12 03:30:29;;;;;;;;;5.00;5.00;;;;;12.05;100.00;100541.88;5018749;28;45372;-74
2023/12/12 03:32:54;;;;;;;;;11.67;9.00;;;;;11.97;100.00;100524.63;5014590;28;45786;-74
2023/12/12 03:35:20;;;;;;;;;11.67;11.33;;;;;12.05;100.00;100528.63;5017899;28;67424;-74
2023/12/12 03:37:45;;;;;;;;;12.00;7.33;;;;;11.94;100.00;100511.53;5014503;28;62584;-75
2023/12/12 03:40:11;;;;;;;;;6.00;4.67;;;;;12.00;100.00;100518.28;4997489;28;45839;-75
2023/12/12 03:42:36;;;;;;;;;6.00;6.00;;;;;11.97;100.00;100500.78;4994136;28;45394;-75
2023/12/12 03:45:01;;;;;;;;;9.67;4.67;;;;;11.91;100.00;100494.97;5018514;28;45475;-75
2023/12/12 03:47:27;;;;;;;;;10.00;6.00;;;;;11.76;100.00;100472.84;4999747;28;48068;-75
2023/12/12 03:49:52;;;;;;;;;9.00;6.67;;;;;11.86;100.00;100478.47;5008394;28;62279;-75
2023/12/12 03:52:17;;;;;;;;;10.67;5.00;;;;;11.97;100.00;100492.81;5024358;28;47044;-75
2023/12/12 03:54:46;;;;;;;;;11.33;7.00;;;;;11.89;100.00;100473.00;5019567;28;45507;-75
2023/12/12 03:57:12;;;;;;;;;10.33;8.67;;;;;11.93;100.00;100478.03;5012044;28;45543;-75
2023/12/12 03:59:38;;;;;;;;;9.00;9.00;;;;;11.91;100.00;100474.59;5018737;28;45346;-75
2023/12/12 04:02:03;;;;;;;;;10.33;9.00;;;;;11.92;100.00;100470.16;5015029;28;45752;-75
2023/12/12 04:04:28;;;;;;;;;12.00;11.00;;;;;12.00;100.00;100481.19;5010629;28;45479;-75
2023/12/12 04:06:54;;;;;;;;;8.33;7.33;;;;;12.00;100.00;100474.09;5000789;28;45544;-75
2023/12/12 04:09:19;;;;;;;;;11.00;10.00;;;;;11.98;100.00;100473.31;5021912;28;44751;-76
2023/12/12 04:11:45;;;;;;;;;11.33;10.67;;;;;12.01;100.00;100481.06;5012142;28;45310;-76
2023/12/12 04:14:10;;;;;;;;;7.00;4.67;;;;;12.08;100.00;100481.56;4995313;28;45239;-76
2023/12/12 04:16:35;;;;;;;;;10.67;7.67;;;;;12.00;100.00;100476.75;5004040;28;45541;-76
2023/12/12 04:19:01;;;;;;;;;7.67;6.00;;;;;12.07;100.00;100479.03;5002317;28;45379;-75
2023/12/12 04:21:26;;;;;;;;;11.00;7.67;;;;;12.01;100.00;100453.72;5023429;28;45419;-75
2023/12/12 04:23:51;;;;;;;;;9.00;9.00;;;;;11.98;100.00;100459.19;5009834;28;45413;-75
2023/12/12 04:26:17;;;;;;;;;13.33;10.33;;;;;12.15;100.00;100482.94;5021691;28;46108;-75
2023/12/12 04:28:42;;;;;;;;;8.33;7.67;;;;;12.12;100.00;100484.91;5000746;28;47513;-74
2023/12/12 04:31:13;;;;;;;;;11.67;11.00;;;;;12.12;100.00;100480.47;4998903;28;45326;-75
2023/12/12 04:33:39;;;;;;;;;10.00;8.00;;;;;12.09;100.00;100483.28;4998799;28;45561;-75
2023/12/12 04:36:04;;;;;;;;;5.67;5.67;;;;;12.19;100.00;100497.72;5011122;28;48480;-75
2023/12/12 04:38:30;;;;;;;;;7.00;7.00;;;;;12.20;100.00;100485.31;5017728;28;45378;-75
2023/12/12 04:40:55;;;;;;;;;10.67;6.00;;;;;12.20;100.00;100483.53;4988013;28;45542;-75
2023/12/12 04:43:22;;;;;;;;;6.00;5.00;;;;;12.00;100.00;100434.34;5008793;28;51890;-75
2023/12/12 04:45:47;;;;;;;;;9.33;6.00;;;;;12.11;100.00;100452.22;5015447;28;45941;-75
2023/12/12 04:48:12;;;;;;;;;5.00;4.00;;;;;12.11;100.00;100449.59;5013332;28;45365;-75
2023/12/12 04:50:38;;;;;;;;;4.00;4.00;;;;;12.18;100.00;100452.72;5021981;28;45379;-75
2023/12/12 04:53:03;;;;;;;;;6.33;5.00;;;;;12.19;100.00;100454.44;5000266;28;45521;-74
2023/12/12 04:55:28;;;;;;;;;6.00;6.00;;;;;12.18;100.00;100442.13;5015781;28;46735;-75
2023/12/12 04:57:54;;;;;;;;;5.33;4.67;;;;;12.19;100.00;100438.53;5002977;28;59710;-75
2023/12/12 05:00:20;;;;;;;;;6.33;6.33;;;;;12.13;100.00;100417.69;4997626;28;45327;-75
2023/12/12 05:02:45;;;;;;;;;5.00;5.00;;;;;12.09;100.00;100426.78;5014255;28;45472;-75
2023/12/12 05:05:11;;;;;;;;;6.33;5.00;;;;;12.19;100.00;100443.84;5015715;28;45489;-76
2023/12/12 05:07:36;;;;;;;;;6.00;5.00;;;;;12.07;100.00;100405.66;5017113;28;45421;-75
2023/12/12 05:10:01;;;;;;;;;7.00;6.00;;;;;11.98;100.00;100406.19;5024348;28;45230;-74
2023/12/12 05:12:27;;;;;;;;;10.67;10.67;;;;;12.07;100.00;100408.31;5005598;28;45350;-75
2023/12/12 05:14:52;;;;;;;;;7.33;4.33;;;;;12.15;100.00;100429.06;4994573;28;47174;-75
2023/12/12 05:17:17;;;;;;;;;6.33;6.33;;;;;12.08;100.00;100420.59;5006535;28;45580;-75
2023/12/12 05:19:43;;;;;;;;;12.33;10.67;;;;;12.12;100.00;100439.84;5023666;28;45294;-74
2023/12/12 05:22:08;;;;;;;;;5.67;5.33;;;;;11.96;100.00;100419.56;5009346;28;50948;-75
2023/12/12 05:24:34;;;;;;;;;7.00;7.00;;;;;12.11;100.00;100433.69;5011876;28;56948;-75
2023/12/12 05:26:59;;;;;;;;;8.00;6.00;;;;;11.89;100.00;100399.66;5024471;28;45388;-75
2023/12/12 05:29:24;;;;;;;;;9.00;7.00;;;;;12.13;100.00;100430.94;5021630;28;55915;-75
2023/12/12 05:31:50;;;;;;;;;8.67;6.00;;;;;12.07;100.00;100412.75;5011504;28;45519;-78
2023/12/12 05:34:15;;;;;;;;;10.00;8.33;;;;;12.00;100.00;100391.94;5019862;28;45356;-77
2023/12/12 05:36:40;;;;;;;;;8.33;7.33;;;;;12.17;100.00;100413.94;5007184;28;45526;-77
2023/12/12 05:39:06;;;;;;;;;9.67;7.00;;;;;12.15;100.00;100410.50;4991590;28;45719;-78
2023/12/12 05:41:34;;;;;;;;;12.67;11.00;;;;;11.93;100.00;100368.53;5020568;28;45301;-78
2023/12/12 05:43:59;;;;;;;;;7.67;7.67;;;;;12.12;100.00;100405.38;5019438;28;45366;-78
2023/12/12 05:46:25;;;;;;;;;10.67;10.67;;;;;11.95;100.00;100374.56;5019403;28;66329;-78
2023/12/12 05:48:50;;;;;;;;;8.00;7.00;;;;;12.04;100.00;100397.91;5006869;28;47619;-78
2023/12/12 05:51:15;;;;;;;;;12.33;10.00;;;;;12.06;100.00;100401.31;5019508;28;45563;-74
2023/12/12 05:53:41;;;;;;;;;14.00;10.33;;;;;11.98;100.00;100393.81;5015740;28;45376;-76
2023/12/12 05:56:07;;;;;;;;;8.67;7.33;;;;;11.93;100.00;100390.59;4988849;28;45556;-77
2023/12/12 05:58:33;;;;;;;;;11.33;9.33;;;;;12.02;100.00;100403.28;5002453;28;45469;-76
2023/12/12 06:00:58;;;;;;;;;10.00;10.00;;;;;12.00;100.00;100402.53;5008208;28;45195;-76
2023/12/12 06:03:23;;;;;;;;;10.33;9.00;;;;;11.82;100.00;100382.41;4996483;28;51316;-76
2023/12/12 06:05:49;;;;;;;;;13.00;12.33;;;;;11.79;100.00;100360.53;5019675;28;45485;-78
2023/12/12 06:08:15;;;;;;;;;11.33;10.67;;;;;11.85;100.00;100387.53;5009799;28;45723;-76
2023/12/12 06:10:40;;;;;;;;;14.00;11.00;;;;;12.01;100.00;100404.22;5013028;28;45253;-78
2023/12/12 06:13:06;;;;;;;;;10.33;10.00;;;;;11.82;100.00;100370.94;5006198;28;47252;-75
2023/12/12 06:15:34;;;;;;;;;12.67;12.00;;;;;11.93;100.00;100372.03;5030210;28;45638;-78
2023/12/12 06:18:00;;;;;;;;;13.00;9.33;;;;;11.94;100.00;100363.13;4993721;28;45354;-76
2023/12/12 06:20:26;;;;;;;;;10.67;9.33;;;;;11.88;100.00;100331.69;5010097;28;45530;-76
2023/12/12 06:22:51;;;;;;;;;11.00;10.33;;;;;12.07;100.00;100373.88;5001875;28;47617;-76
2023/12/12 06:25:17;;;;;;;;;9.33;9.33;;;;;11.99;100.00;100347.81;5018753;28;45776;-76
2023/12/12 06:27:42;;;;;;;;;9.00;9.00;;;;;12.00;100.00;100356.63;4991278;28;50920;-76
2023/12/12 06:30:08;;;;;;;;;13.00;7.67;;;;;11.97;100.00;100341.75;5019505;28;45545;-76
2023/12/12 06:32:33;;;;;;;;;11.00;10.00;;;;;11.95;100.00;100346.28;5008119;28;46585;-75
2023/12/12 06:34:59;;;;;;;;;10.67;10.00;;;;;11.88;100.00;100344.94;5002107;28;45420;-75
2023/12/12 06:37:25;;;;;;;;;7.00;7.00;;;;;12.08;100.00;100372.03;5005510;28;45327;-76
2023/12/12 06:39:50;;;;;;;;;9.00;9.00;;;;;11.97;100.00;100355.00;5011227;28;45282;-76
2023/12/12 06:42:16;;;;;;;;;9.00;9.00;;;;;11.95;100.00;100362.19;5003390;28;46834;-76
2023/12/12 06:44:41;;;;;;;;;10.00;9.33;;;;;12.11;100.00;100375.34;5019354;28;45317;-77
2023/12/12 06:47:07;;;;;;;;;11.00;8.33;;;;;11.91;100.00;100355.34;5015430;28;45498;-76
2023/12/12 06:49:32;;;;;;;;;6.67;6.67;;;;;12.04;100.00;100375.84;5002187;28;45552;-76
2023/12/12 06:51:58;;;;;;;;;6.67;5.33;;;;;11.80;100.00;100341.91;4994298;28;47822;-76
2023/12/12 06:54:24;;;;;;;;;2.00;2.00;;;;;12.05;100.00;100365.13;5019226;28;45443;-76
2023/12/12 06:56:52;;;;;;;;;7.00;5.67;;;;;11.98;100.00;100350.53;5001212;28;54251;-76
2023/12/12 06:59:17;;;;;;;;;7.00;6.33;;;;;11.93;100.00;100336.72;5012543;28;45460;-77
2023/12/12 07:01:43;;;;;;;;;5.33;5.00;;;;;11.86;100.00;100362.75;5004371;28;45439;-76
2023/12/12 07:04:08;;;;;;;;;2.67;2.00;;;;;12.12;100.00;100387.69;4999533;28;45367;-75
2023/12/12 07:06:34;;;;;;;;;5.00;4.00;;;;;12.06;100.00;100381.88;5013369;28;45317;-75
2023/12/12 07:08:59;;;;;;;;;6.00;6.00;;;;;12.09;100.00;100395.81;4997866;28;45364;-75
2023/12/12 07:11:24;;;;;;;;;6.33;4.00;;;;;11.94;100.00;100381.66;4982116;28;49959;-76
2023/12/12 07:13:50;;;;;;;;;5.00;5.00;;;;;12.09;100.00;100397.59;4995626;28;45643;-76
2023/12/12 07:16:15;;;;;;;;;5.00;3.00;;;;;11.90;100.00;100366.91;4981628;28;54738;-76
2023/12/12 07:18:40;;;;;;;;;12.33;8.33;;;;;12.15;100.00;100415.78;5001209;28;45532;-76
2023/12/12 07:21:06;;;;;;;;;8.33;8.33;;;;;12.08;100.00;100401.19;5018793;28;46174;-75
2023/12/12 07:23:31;;;;;;;;;8.67;6.33;;;;;12.20;100.00;100403.13;5017254;28;45445;-75
2023/12/12 07:25:58;;;;;;;;;5.67;4.33;;;;;12.21;100.00;100416.28;5012146;28;45504;-76
2023/12/12 07:28:23;;;;;;;;;8.33;6.00;;;;;12.14;100.00;100384.94;4993930;28;45456;-77
2023/12/12 07:30:49;;;;;;;;;10.33;5.67;;;;;12.25;100.00;100399.25;5013169;28;45918;-77
2023/12/12 07:33:14;;;;;;;;;4.33;4.00;;;;;12.27;100.00;100407.13;4995870;28;45606;-77
2023/12/12 07:35:40;;;;;;;;;7.00;5.67;;;;;12.32;100.00;100402.38;5002392;28;45517;-76
2023/12/12 07:38:05;;;;;;;;;6.67;4.00;;;;;12.34;100.00;100398.69;5001440;28;45386;-77
2023/12/12 07:40:30;;;;;;;;;8.00;8.00;;;;;12.22;100.00;100374.72;5009035;28;45650;-75
2023/12/12 07:42:57;;;;;;;;;7.00;6.00;;;;;12.35;100.00;100388.94;5005519;28;45472;-76
2023/12/12 07:45:22;;;;;;;;;5.00;5.00;;;;;12.33;100.00;100382.88;5007804;28;45231;-75
2023/12/12 07:47:48;;;;;;;;;8.33;6.33;;;;;12.43;100.00;100397.28;4994636;28;45589;-75
2023/12/12 07:50:16;;;;;;;;;5.00;4.00;;;;;12.34;100.00;100376.63;4998588;28;45390;-75
2023/12/12 07:52:42;;;;;;;;;6.00;4.00;;;;;12.42;100.00;100391.13;4994023;28;45647;-75
2023/12/12 07:55:08;;;;;;;;;7.00;6.67;;;;;12.50;100.00;100398.59;4988694;28;45481;-75
2023/12/12 07:57:33;;;;;;;;;6.00;4.67;;;;;12.38;100.00;100376.34;5005225;28;45364;-75
2023/12/12 07:59:58;;;;;;;;;5.33;5.33;;;;;12.47;100.00;100386.38;4998518;28;61151;-75
2023/12/12 08:02:24;;;;;;;;;5.00;5.00;;;;;12.44;100.00;100368.00;5008678;28;45618;-75
2023/12/12 08:04:49;;;;;;;;;7.67;7.00;;;;;12.45;100.00;100372.38;5000394;28;45445;-76
2023/12/12 08:07:16;;;;;;;;;8.33;5.67;;;;;12.60;100.00;100390.94;5011844;28;45481;-75
2023/12/12 08:09:41;;;;;;;;;7.00;6.00;;;;;12.52;100.00;100372.84;5015153;28;45737;-75
2023/12/12 08:12:07;;;;;;;;;8.67;8.33;;;;;12.65;100.00;100378.25;5010987;28;45415;-75
2023/12/12 08:14:32;;;;;;;;;6.67;4.33;;;;;12.63;100.00;100383.63;4992333;28;45374;-75
2023/12/12 08:16:57;;;;;;;;;10.00;7.00;;;;;12.68;100.00;100386.88;5003525;28;45312;-75
2023/12/12 08:19:22;;;;;;;;;6.67;6.67;;;;;12.64;100.00;100369.41;5001523;28;45494;-75
2023/12/12 08:21:48;;;;;;;;;5.67;5.00;;;;;12.56;100.00;100366.41;5003504;28;45365;-75
2023/12/12 08:24:14;;;;;;;;;6.00;5.00;;;;;12.70;100.00;100377.00;5002195;28;45395;-75
2023/12/12 08:26:43;;;;;;;;;5.00;5.00;;;;;12.69;100.00;100374.44;5003695;28;45302;-75
2023/12/12 08:29:14;;;;;;;;;4.00;4.00;;;;;12.73;100.00;100379.44;5003817;28;45511;-75
2023/12/12 08:31:40;;;;;;;;;5.33;5.33;;;;;12.64;100.00;100357.94;5006819;28;45500;-75
2023/12/12 08:34:05;;;;;;;;;6.00;3.67;;;;;12.72;100.00;100374.25;5003786;28;45335;-75
2023/12/12 08:36:31;;;;;;;;;7.00;4.00;;;;;12.73;100.00;100382.09;5000326;28;45492;-75
2023/12/12 08:38:58;;;;;;;;;5.00;4.00;;;;;12.80;100.00;100382.56;5014712;28;46346;-75
2023/12/12 08:41:27;;;;;;;;;3.33;3.00;;;;;12.81;100.00;100378.97;5021144;28;45377;-75
2023/12/12 08:43:52;;;;;;;;;5.00;4.00;;;;;12.80;100.00;100380.78;5008670;28;45459;-75
2023/12/12 08:46:21;;;;;;;;;5.00;5.00;;;;;12.86;100.00;100385.69;5017083;28;45451;-76
2023/12/12 08:48:46;;;;;;;;;5.00;4.00;;;;;12.87;100.00;100381.25;5011859;28;46864;-75
2023/12/12 08:51:12;;;;;;;;;4.00;4.00;;;;;12.91;100.00;100373.00;5016682;28;45377;-75
2023/12/12 08:53:37;;;;;;;;;3.67;3.00;;;;;12.95;100.00;100395.75;5021749;28;45326;-75
2023/12/12 08:56:04;;;;;;;;;3.00;2.00;;;;;12.97;100.00;100383.22;5008006;28;45378;-75
2023/12/12 08:58:29;;;;;;;;;1.67;1.67;;;;;13.00;100.00;100383.03;5002118;28;47987;-76
2023/12/12 09:00:55;;;;;;;;;2.00;1.00;;;;;12.93;100.00;100367.56;4996919;28;45435;-75
2023/12/12 09:03:21;;;;;;;;;1.33;1.33;;;;;13.04;100.00;100379.22;4999858;28;45263;-75
2023/12/12 09:05:46;;;;;;;;;0.00;0.00;;;;;13.11;100.00;100387.69;4992063;28;45465;-75
2023/12/12 09:08:12;;;;;;;;;0.00;0.00;;;;;13.10;100.00;100390.44;5014330;28;46570;-75
2023/12/12 09:10:37;;;;;;;;;0.00;0.00;;;;;13.10;100.00;100366.53;4991977;28;46104;-75
2023/12/12 09:13:04;;;;;;;;;0.00;0.00;;;;;13.17;100.00;100362.53;5020467;28;45363;-75
2023/12/12 09:15:31;;;;;;;;;2.00;0.00;;;;;13.21;100.00;100361.41;5006407;28;45435;-75
2023/12/12 09:17:56;;;;;;;;;0.00;0.00;;;;;13.24;100.00;100369.16;5008888;28;45644;-75
2023/12/12 09:20:21;;;;;;;;;0.67;0.67;;;;;13.25;100.00;100368.22;5006128;28;45558;-75
2023/12/12 09:22:47;;;;;;;;;0.67;0.67;;;;;13.19;100.00;100357.97;5010228;28;45450;-75
2023/12/12 09:25:13;;;;;;;;;5.00;1.00;;;;;13.17;100.00;100352.78;4997162;28;45382;-75
2023/12/12 09:27:38;;;;;;;;;0.00;0.00;;;;;13.33;100.00;100364.09;4993718;28;47047;-75
2023/12/12 09:30:04;;;;;;;;;0.67;0.67;;;;;13.26;100.00;100359.28;4999703;28;45646;-75
2023/12/12 09:32:29;;;;;;;;;2.00;1.00;;;;;13.39;100.00;100366.34;5013692;28;45488;-74
2023/12/12 09:34:54;;;;;;;;;0.00;0.00;;;;;13.40;100.00;100370.72;4987980;28;45354;-75
2023/12/12 09:37:22;;;;;;;;;1.00;1.00;;;;;13.40;100.00;100361.91;5020789;28;45476;-74
2023/12/12 09:39:48;;;;;;;;;0.00;0.00;;;;;13.40;100.00;100362.75;5019828;28;45214;-75
2023/12/12 09:42:17;;;;;;;;;0.00;0.00;;;;;13.43;100.00;100372.31;5007947;28;45352;-75
2023/12/12 09:44:44;;;;;;;;;2.00;1.00;;;;;13.45;100.00;100365.09;5009443;28;45302;-75
2023/12/12 09:47:11;;;;;;;;;2.33;1.00;;;;;13.55;100.00;100376.81;5010648;28;45443;-75
2023/12/12 09:49:37;;;;;;;;;1.00;1.00;;;;;13.59;100.00;100375.66;5005083;28;45285;-75
2023/12/12 09:52:03;;;;;;;;;0.33;0.33;;;;;13.61;100.00;100368.47;5003482;28;45279;-75
2023/12/12 09:54:29;;;;;;;;;1.00;1.00;;;;;13.64;100.00;100372.72;4998387;28;45329;-75
2023/12/12 09:56:55;;;;;;;;;1.00;1.00;;;;;13.61;100.00;100360.50;5020253;28;45396;-75
2023/12/12 09:59:20;;;;;;;;;0.33;0.33;;;;;13.71;100.00;100366.88;5020633;28;45353;-75
2023/12/12 10:01:47;;;;;;;;;1.00;1.00;;;;;13.73;100.00;100357.00;4989006;28;45530;-75
2023/12/12 10:04:17;;;;;;;;;0.33;0.33;;;;;13.68;100.00;100351.13;5001457;28;45488;-75
2023/12/12 10:06:52;;;;;;;;;2.00;1.00;;;;;13.78;100.00;100356.66;5003957;28;45365;-74
2023/12/12 10:09:18;;;;;;;;;2.33;0.67;;;;;13.87;100.00;100354.25;4992452;28;45404;-75
2023/12/12 10:11:43;;;;;;;;;0.00;0.00;;;;;13.80;100.00;100339.69;5019832;28;45350;-75
2023/12/12 10:14:10;;;;;;;;;0.00;0.00;;;;;13.87;100.00;100338.28;5013644;28;45421;-75
2023/12/12 10:16:35;;;;;;;;;0.00;0.00;;;;;13.99;100.00;100360.56;5016756;28;45273;-75
2023/12/12 10:19:01;;;;;;;;;1.67;0.00;;;;;13.92;100.00;100332.69;4999639;28;55622;-74
2023/12/12 10:21:28;;;;;;;;;0.00;0.00;;;;;14.04;100.00;100347.78;5013741;28;45389;-75
2023/12/12 10:23:54;;;;;;;;;2.33;0.00;;;;;13.85;100.00;100318.94;4987297;28;45512;-75
2023/12/12 10:26:30;;;;;;;;;1.33;0.00;;;;;14.09;100.00;100343.88;5000687;28;45628;-75
2023/12/12 10:28:56;;;;;;;;;1.00;1.00;;;;;14.10;100.00;100339.41;5009067;28;45525;-75
2023/12/12 10:31:25;;;;;;;;;0.33;0.00;;;;;14.12;100.00;100334.81;5013696;28;45342;-75
2023/12/12 10:33:51;;;;;;;;;0.00;0.00;;;;;14.01;100.00;100308.09;4988223;28;45532;-75
2023/12/12 10:36:17;;;;;;;;;2.00;0.33;;;;;14.21;100.00;100330.66;5019425;28;46180;-75
2023/12/12 10:38:44;;;;;;;;;0.00;0.00;;;;;14.16;100.00;100332.81;5006361;28;45388;-75
2023/12/12 10:41:20;;;;;;;;;1.00;0.00;;;;;14.20;100.00;100319.16;5018603;28;45360;-76
2023/12/12 10:43:47;;;;;;;;;0.00;0.00;;;;;14.07;100.00;100300.56;5000288;28;45552;-74
2023/12/12 10:46:14;;;;;;;;;0.00;0.00;;;;;14.22;100.00;100321.72;5009547;28;45289;-75
2023/12/12 10:48:48;;;;;;;;;1.00;0.00;;;;;14.30;100.00;100322.06;5001563;28;45323;-74
2023/12/12 10:51:17;;;;;;;;;0.00;0.00;;;;;14.25;100.00;100316.19;5019919;28;45398;-74
2023/12/12 10:53:48;;;;;;;;;1.00;1.00;;;;;14.13;100.00;100282.47;5020348;28;45512;-75
2023/12/12 10:56:14;;;;;;;;;0.00;0.00;;;;;14.27;100.00;100311.59;5020612;28;45342;-75
2023/12/12 10:58:43;;;;;;;;;0.00;0.00;;;;;14.12;100.00;100288.75;4990106;28;45322;-75
2023/12/12 11:01:10;;;;;;;;;2.00;0.33;;;;;14.14;100.00;100297.47;5009664;28;45436;-75
2023/12/12 11:03:36;;;;;;;;;0.00;0.00;;;;;14.23;100.00;100315.47;5004949;28;45530;-75
2023/12/12 11:06:03;;;;;;;;;0.00;0.00;;;;;14.14;100.00;100292.16;4986083;28;48291;-75